sensor_id;sensor_type;location;lat;lon;timestamp;temperature;humidity
20057;DHT22;10189;49.546;7.906;2023-09-07T00:01:55;14.10;94.60
20057;DHT22;10189;49.546;7.906;2023-09-07T00:04:21;14.00;94.80
20057;DHT22;10189;49.546;7.906;2023-09-07T00:06:49;14.00;95.00
20057;DHT22;10189;49.546;7.906;2023-09-07T00:09:16;13.90;95.40
20057;DHT22;10189;49.546;7.906;2023-09-07T00:11:44;13.80;95.70
20057;DHT22;10189;49.546;7.906;2023-09-07T00:14:11;13.80;96.00
20057;DHT22;10189;49.546;7.906;2023-09-07T00:16:37;13.70;96.30
20057;DHT22;10189;49.546;7.906;2023-09-07T00:19:04;13.70;96.60
20057;DHT22;10189;49.546;7.906;2023-09-07T00:21:31;13.60;96.90
20057;DHT22;10189;49.546;7.906;2023-09-07T00:23:57;13.60;97.00
20057;DHT22;10189;49.546;7.906;2023-09-07T00:26:23;13.70;97.20
20057;DHT22;10189;49.546;7.906;2023-09-07T00:28:48;13.70;97.10
20057;DHT22;10189;49.546;7.906;2023-09-07T00:31:14;13.70;97.00
20057;DHT22;10189;49.546;7.906;2023-09-07T00:33:40;13.80;96.90
20057;DHT22;10189;49.546;7.906;2023-09-07T00:36:07;13.70;96.90
20057;DHT22;10189;49.546;7.906;2023-09-07T00:38:33;13.70;97.00
20057;DHT22;10189;49.546;7.906;2023-09-07T00:40:58;13.70;97.20
20057;DHT22;10189;49.546;7.906;2023-09-07T00:43:24;13.70;97.20
20057;DHT22;10189;49.546;7.906;2023-09-07T00:45:50;13.70;97.50
20057;DHT22;10189;49.546;7.906;2023-09-07T00:48:16;13.70;97.50
20057;DHT22;10189;49.546;7.906;2023-09-07T00:50:43;13.70;97.50
20057;DHT22;10189;49.546;7.906;2023-09-07T00:53:10;13.80;97.00
20057;DHT22;10189;49.546;7.906;2023-09-07T00:55:37;13.80;96.90
20057;DHT22;10189;49.546;7.906;2023-09-07T00:58:04;13.80;96.70
20057;DHT22;10189;49.546;7.906;2023-09-07T01:00:30;13.80;96.40
20057;DHT22;10189;49.546;7.906;2023-09-07T01:02:57;13.80;96.20
20057;DHT22;10189;49.546;7.906;2023-09-07T01:05:30;13.90;95.70
20057;DHT22;10189;49.546;7.906;2023-09-07T01:08:12;14.00;95.30
20057;DHT22;10189;49.546;7.906;2023-09-07T01:10:44;13.90;95.30
20057;DHT22;10189;49.546;7.906;2023-09-07T01:13:10;13.90;95.40
20057;DHT22;10189;49.546;7.906;2023-09-07T01:15:37;13.80;95.30
20057;DHT22;10189;49.546;7.906;2023-09-07T01:18:03;13.70;95.70
20057;DHT22;10189;49.546;7.906;2023-09-07T01:20:32;13.70;96.20
20057;DHT22;10189;49.546;7.906;2023-09-07T01:22:58;13.60;96.50
20057;DHT22;10189;49.546;7.906;2023-09-07T01:25:24;13.60;96.60
20057;DHT22;10189;49.546;7.906;2023-09-07T01:27:50;13.60;96.60
20057;DHT22;10189;49.546;7.906;2023-09-07T01:30:16;13.60;96.80
20057;DHT22;10189;49.546;7.906;2023-09-07T01:32:43;13.50;96.90
20057;DHT22;10189;49.546;7.906;2023-09-07T01:35:10;13.60;96.70
20057;DHT22;10189;49.546;7.906;2023-09-07T01:37:38;13.60;96.50
20057;DHT22;10189;49.546;7.906;2023-09-07T01:40:04;13.60;96.10
20057;DHT22;10189;49.546;7.906;2023-09-07T01:42:33;13.70;95.90
20057;DHT22;10189;49.546;7.906;2023-09-07T01:44:59;13.70;96.00
20057;DHT22;10189;49.546;7.906;2023-09-07T01:47:25;13.70;95.90
20057;DHT22;10189;49.546;7.906;2023-09-07T01:49:50;13.80;95.60
20057;DHT22;10189;49.546;7.906;2023-09-07T01:52:16;13.80;95.40
20057;DHT22;10189;49.546;7.906;2023-09-07T01:54:42;13.80;95.50
20057;DHT22;10189;49.546;7.906;2023-09-07T01:57:08;13.80;95.50
20057;DHT22;10189;49.546;7.906;2023-09-07T01:59:35;13.90;95.30
20057;DHT22;10189;49.546;7.906;2023-09-07T02:02:00;13.90;95.10
20057;DHT22;10189;49.546;7.906;2023-09-07T02:04:26;13.80;95.30
20057;DHT22;10189;49.546;7.906;2023-09-07T02:06:52;13.90;95.10
20057;DHT22;10189;49.546;7.906;2023-09-07T02:09:18;13.90;95.00
20057;DHT22;10189;49.546;7.906;2023-09-07T02:11:44;13.90;94.80
20057;DHT22;10189;49.546;7.906;2023-09-07T02:14:10;13.90;94.80
20057;DHT22;10189;49.546;7.906;2023-09-07T02:16:36;13.90;95.00
20057;DHT22;10189;49.546;7.906;2023-09-07T02:19:03;13.90;95.10
20057;DHT22;10189;49.546;7.906;2023-09-07T02:21:30;13.90;95.00
20057;DHT22;10189;49.546;7.906;2023-09-07T02:23:56;13.90;95.10
20057;DHT22;10189;49.546;7.906;2023-09-07T02:26:22;13.90;95.10
20057;DHT22;10189;49.546;7.906;2023-09-07T02:28:48;13.80;95.20
20057;DHT22;10189;49.546;7.906;2023-09-07T02:31:14;13.80;95.10
20057;DHT22;10189;49.546;7.906;2023-09-07T02:33:40;13.80;95.10
20057;DHT22;10189;49.546;7.906;2023-09-07T02:36:06;13.80;95.30
20057;DHT22;10189;49.546;7.906;2023-09-07T02:38:32;13.80;95.10
20057;DHT22;10189;49.546;7.906;2023-09-07T02:40:59;13.70;95.50
20057;DHT22;10189;49.546;7.906;2023-09-07T02:43:25;13.80;95.30
20057;DHT22;10189;49.546;7.906;2023-09-07T02:45:51;13.80;95.40
20057;DHT22;10189;49.546;7.906;2023-09-07T02:48:19;13.80;95.10
20057;DHT22;10189;49.546;7.906;2023-09-07T02:50:45;13.80;95.40
20057;DHT22;10189;49.546;7.906;2023-09-07T02:53:14;13.70;95.30
20057;DHT22;10189;49.546;7.906;2023-09-07T02:55:41;13.70;95.30
20057;DHT22;10189;49.546;7.906;2023-09-07T02:58:07;13.60;95.30
20057;DHT22;10189;49.546;7.906;2023-09-07T03:00:32;13.50;95.30
20057;DHT22;10189;49.546;7.906;2023-09-07T03:03:00;13.40;95.10
20057;DHT22;10189;49.546;7.906;2023-09-07T03:05:28;13.20;95.50
20057;DHT22;10189;49.546;7.906;2023-09-07T03:07:54;13.00;96.30
20057;DHT22;10189;49.546;7.906;2023-09-07T03:10:20;12.90;96.90
20057;DHT22;10189;49.546;7.906;2023-09-07T03:12:46;12.80;97.60
20057;DHT22;10189;49.546;7.906;2023-09-07T03:15:13;12.70;98.10
20057;DHT22;10189;49.546;7.906;2023-09-07T03:17:40;12.60;98.70
20057;DHT22;10189;49.546;7.906;2023-09-07T03:20:07;12.50;99.20
20057;DHT22;10189;49.546;7.906;2023-09-07T03:22:43;12.40;99.50
20057;DHT22;10189;49.546;7.906;2023-09-07T03:25:10;12.30;99.90
20057;DHT22;10189;49.546;7.906;2023-09-07T03:27:37;12.30;99.90
20057;DHT22;10189;49.546;7.906;2023-09-07T03:30:05;12.20;99.90
20057;DHT22;10189;49.546;7.906;2023-09-07T03:32:32;12.20;99.90
20057;DHT22;10189;49.546;7.906;2023-09-07T03:34:59;12.10;99.90
20057;DHT22;10189;49.546;7.906;2023-09-07T03:37:29;12.10;99.90
20057;DHT22;10189;49.546;7.906;2023-09-07T03:39:55;12.10;99.90
20057;DHT22;10189;49.546;7.906;2023-09-07T03:42:22;12.00;99.90
20057;DHT22;10189;49.546;7.906;2023-09-07T03:44:49;12.00;99.90
20057;DHT22;10189;49.546;7.906;2023-09-07T03:47:15;12.00;99.90
20057;DHT22;10189;49.546;7.906;2023-09-07T03:49:41;12.00;99.90
20057;DHT22;10189;49.546;7.906;2023-09-07T03:52:07;11.90;99.90
20057;DHT22;10189;49.546;7.906;2023-09-07T03:54:34;11.90;99.90
20057;DHT22;10189;49.546;7.906;2023-09-07T03:57:01;11.90;99.90
20057;DHT22;10189;49.546;7.906;2023-09-07T03:59:29;11.90;99.90
20057;DHT22;10189;49.546;7.906;2023-09-07T04:01:55;11.90;99.90
20057;DHT22;10189;49.546;7.906;2023-09-07T04:04:21;11.80;99.90
20057;DHT22;10189;49.546;7.906;2023-09-07T04:06:47;11.80;99.90
20057;DHT22;10189;49.546;7.906;2023-09-07T04:09:16;11.80;99.90
20057;DHT22;10189;49.546;7.906;2023-09-07T04:11:41;11.80;99.90
20057;DHT22;10189;49.546;7.906;2023-09-07T04:14:08;11.70;99.90
20057;DHT22;10189;49.546;7.906;2023-09-07T04:16:34;11.80;99.90
20057;DHT22;10189;49.546;7.906;2023-09-07T04:18:59;11.90;99.90
20057;DHT22;10189;49.546;7.906;2023-09-07T04:21:25;12.10;99.90
20057;DHT22;10189;49.546;7.906;2023-09-07T04:23:51;12.20;99.90
20057;DHT22;10189;49.546;7.906;2023-09-07T04:26:17;12.40;99.90
20057;DHT22;10189;49.546;7.906;2023-09-07T04:28:43;12.40;99.90
20057;DHT22;10189;49.546;7.906;2023-09-07T04:31:10;12.50;99.90
20057;DHT22;10189;49.546;7.906;2023-09-07T04:33:36;12.50;99.90
20057;DHT22;10189;49.546;7.906;2023-09-07T04:36:12;12.60;99.90
20057;DHT22;10189;49.546;7.906;2023-09-07T04:38:42;12.60;99.90
20057;DHT22;10189;49.546;7.906;2023-09-07T04:41:12;12.80;99.90
20057;DHT22;10189;49.546;7.906;2023-09-07T04:43:41;13.10;99.90
20057;DHT22;10189;49.546;7.906;2023-09-07T04:46:13;13.30;99.70
20057;DHT22;10189;49.546;7.906;2023-09-07T04:48:41;13.40;98.50
20057;DHT22;10189;49.546;7.906;2023-09-07T04:51:08;13.50;97.70
20057;DHT22;10189;49.546;7.906;2023-09-07T04:53:36;13.50;97.60
20057;DHT22;10189;49.546;7.906;2023-09-07T04:56:05;13.60;96.80
20057;DHT22;10189;49.546;7.906;2023-09-07T04:58:32;13.60;96.60
20057;DHT22;10189;49.546;7.906;2023-09-07T05:01:02;13.50;96.80
20057;DHT22;10189;49.546;7.906;2023-09-07T05:03:35;13.60;96.80
20057;DHT22;10189;49.546;7.906;2023-09-07T05:06:02;13.70;96.60
20057;DHT22;10189;49.546;7.906;2023-09-07T05:08:29;13.80;95.60
20057;DHT22;10189;49.546;7.906;2023-09-07T05:10:57;14.00;94.70
20057;DHT22;10189;49.546;7.906;2023-09-07T05:13:24;14.10;93.90
20057;DHT22;10189;49.546;7.906;2023-09-07T05:15:53;14.30;92.90
20057;DHT22;10189;49.546;7.906;2023-09-07T05:18:20;14.30;92.40
20057;DHT22;10189;49.546;7.906;2023-09-07T05:20:47;14.40;92.20
20057;DHT22;10189;49.546;7.906;2023-09-07T05:23:22;14.50;91.70
20057;DHT22;10189;49.546;7.906;2023-09-07T05:25:52;14.50;91.70
20057;DHT22;10189;49.546;7.906;2023-09-07T05:28:22;14.50;91.50
20057;DHT22;10189;49.546;7.906;2023-09-07T05:30:50;14.50;91.60
20057;DHT22;10189;49.546;7.906;2023-09-07T05:33:17;14.60;91.10
20057;DHT22;10189;49.546;7.906;2023-09-07T05:35:44;14.70;90.70
20057;DHT22;10189;49.546;7.906;2023-09-07T05:38:12;14.70;90.30
20057;DHT22;10189;49.546;7.906;2023-09-07T05:40:43;14.90;89.60
20057;DHT22;10189;49.546;7.906;2023-09-07T05:43:10;15.00;89.30
20057;DHT22;10189;49.546;7.906;2023-09-07T05:45:39;15.20;88.90
20057;DHT22;10189;49.546;7.906;2023-09-07T05:48:08;15.30;88.20
20057;DHT22;10189;49.546;7.906;2023-09-07T05:50:35;15.50;87.70
20057;DHT22;10189;49.546;7.906;2023-09-07T05:53:03;15.60;86.80
20057;DHT22;10189;49.546;7.906;2023-09-07T05:55:30;15.80;86.00
20057;DHT22;10189;49.546;7.906;2023-09-07T05:57:57;15.90;85.60
20057;DHT22;10189;49.546;7.906;2023-09-07T06:00:24;16.00;84.20
20057;DHT22;10189;49.546;7.906;2023-09-07T06:02:51;16.30;84.20
20057;DHT22;10189;49.546;7.906;2023-09-07T06:05:17;16.40;83.50
20057;DHT22;10189;49.546;7.906;2023-09-07T06:07:44;16.60;83.70
20057;DHT22;10189;49.546;7.906;2023-09-07T06:10:12;16.70;83.30
20057;DHT22;10189;49.546;7.906;2023-09-07T06:12:38;16.80;80.60
20057;DHT22;10189;49.546;7.906;2023-09-07T06:15:04;16.90;81.40
20057;DHT22;10189;49.546;7.906;2023-09-07T06:17:31;16.90;81.70
20057;DHT22;10189;49.546;7.906;2023-09-07T06:19:57;16.90;80.60
20057;DHT22;10189;49.546;7.906;2023-09-07T06:22:24;16.90;79.80
20057;DHT22;10189;49.546;7.906;2023-09-07T06:24:51;17.00;81.20
20057;DHT22;10189;49.546;7.906;2023-09-07T06:27:17;17.20;80.00
20057;DHT22;10189;49.546;7.906;2023-09-07T06:29:43;17.30;79.20
20057;DHT22;10189;49.546;7.906;2023-09-07T06:32:09;17.40;78.90
20057;DHT22;10189;49.546;7.906;2023-09-07T06:34:35;17.50;77.90
20057;DHT22;10189;49.546;7.906;2023-09-07T06:37:02;17.60;78.10
20057;DHT22;10189;49.546;7.906;2023-09-07T06:39:28;17.80;77.90
20057;DHT22;10189;49.546;7.906;2023-09-07T06:41:53;17.80;77.40
20057;DHT22;10189;49.546;7.906;2023-09-07T06:44:22;17.80;77.60
20057;DHT22;10189;49.546;7.906;2023-09-07T06:46:48;17.90;77.30
20057;DHT22;10189;49.546;7.906;2023-09-07T06:49:17;18.00;78.80
20057;DHT22;10189;49.546;7.906;2023-09-07T06:51:42;18.20;76.10
20057;DHT22;10189;49.546;7.906;2023-09-07T06:54:08;18.30;77.10
20057;DHT22;10189;49.546;7.906;2023-09-07T06:56:36;18.40;77.90
20057;DHT22;10189;49.546;7.906;2023-09-07T06:59:02;18.40;75.20
20057;DHT22;10189;49.546;7.906;2023-09-07T07:01:28;18.30;76.30
20057;DHT22;10189;49.546;7.906;2023-09-07T07:03:54;18.40;75.60
20057;DHT22;10189;49.546;7.906;2023-09-07T07:06:23;18.40;76.30
20057;DHT22;10189;49.546;7.906;2023-09-07T07:08:49;18.50;76.90
20057;DHT22;10189;49.546;7.906;2023-09-07T07:11:16;18.60;75.80
20057;DHT22;10189;49.546;7.906;2023-09-07T07:13:42;18.70;75.00
20057;DHT22;10189;49.546;7.906;2023-09-07T07:16:08;18.70;76.20
20057;DHT22;10189;49.546;7.906;2023-09-07T07:18:34;18.90;76.40
20057;DHT22;10189;49.546;7.906;2023-09-07T07:21:00;19.00;76.60
20057;DHT22;10189;49.546;7.906;2023-09-07T07:23:27;19.20;75.90
20057;DHT22;10189;49.546;7.906;2023-09-07T07:25:52;19.40;74.60
20057;DHT22;10189;49.546;7.906;2023-09-07T07:28:18;19.40;72.70
20057;DHT22;10189;49.546;7.906;2023-09-07T07:30:44;19.30;72.80
20057;DHT22;10189;49.546;7.906;2023-09-07T07:33:10;19.40;73.50
20057;DHT22;10189;49.546;7.906;2023-09-07T07:35:39;19.40;73.50
20057;DHT22;10189;49.546;7.906;2023-09-07T07:38:05;19.40;73.30
20057;DHT22;10189;49.546;7.906;2023-09-07T07:40:34;19.60;74.10
20057;DHT22;10189;49.546;7.906;2023-09-07T07:43:00;19.80;72.70
20057;DHT22;10189;49.546;7.906;2023-09-07T07:45:26;19.90;74.00
20057;DHT22;10189;49.546;7.906;2023-09-07T07:47:53;20.00;73.40
20057;DHT22;10189;49.546;7.906;2023-09-07T07:50:19;20.10;71.50
20057;DHT22;10189;49.546;7.906;2023-09-07T07:52:47;19.90;72.00
20057;DHT22;10189;49.546;7.906;2023-09-07T07:55:13;19.90;72.90
20057;DHT22;10189;49.546;7.906;2023-09-07T07:57:40;20.00;74.20
20057;DHT22;10189;49.546;7.906;2023-09-07T08:00:08;20.00;73.00
20057;DHT22;10189;49.546;7.906;2023-09-07T08:02:46;20.10;72.40
20057;DHT22;10189;49.546;7.906;2023-09-07T08:05:14;20.20;72.30
20057;DHT22;10189;49.546;7.906;2023-09-07T08:07:40;20.30;72.80
20057;DHT22;10189;49.546;7.906;2023-09-07T08:10:06;20.50;72.70
20057;DHT22;10189;49.546;7.906;2023-09-07T08:12:32;20.50;71.40
20057;DHT22;10189;49.546;7.906;2023-09-07T08:14:58;20.60;71.00
20057;DHT22;10189;49.546;7.906;2023-09-07T08:17:24;20.70;70.50
20057;DHT22;10189;49.546;7.906;2023-09-07T08:19:51;20.60;70.40
20057;DHT22;10189;49.546;7.906;2023-09-07T08:22:22;20.70;71.20
20057;DHT22;10189;49.546;7.906;2023-09-07T08:24:48;20.80;70.30
20057;DHT22;10189;49.546;7.906;2023-09-07T08:27:15;20.90;70.70
20057;DHT22;10189;49.546;7.906;2023-09-07T08:29:45;21.00;71.10
20057;DHT22;10189;49.546;7.906;2023-09-07T08:32:17;21.20;71.60
20057;DHT22;10189;49.546;7.906;2023-09-07T08:34:44;21.40;69.10
20057;DHT22;10189;49.546;7.906;2023-09-07T08:37:10;21.50;70.90
20057;DHT22;10189;49.546;7.906;2023-09-07T08:39:36;21.60;68.80
20057;DHT22;10189;49.546;7.906;2023-09-07T08:42:02;21.70;68.60
20057;DHT22;10189;49.546;7.906;2023-09-07T08:44:29;21.70;69.50
20057;DHT22;10189;49.546;7.906;2023-09-07T08:46:59;21.80;69.40
20057;DHT22;10189;49.546;7.906;2023-09-07T08:49:29;22.00;69.10
20057;DHT22;10189;49.546;7.906;2023-09-07T08:51:58;22.00;66.20
20057;DHT22;10189;49.546;7.906;2023-09-07T08:54:27;22.10;68.50
20057;DHT22;10189;49.546;7.906;2023-09-07T08:56:58;22.20;66.40
20057;DHT22;10189;49.546;7.906;2023-09-07T08:59:24;22.20;66.70
20057;DHT22;10189;49.546;7.906;2023-09-07T09:01:50;22.30;64.90
20057;DHT22;10189;49.546;7.906;2023-09-07T09:04:22;22.20;65.00
20057;DHT22;10189;49.546;7.906;2023-09-07T09:06:48;22.20;64.50
20057;DHT22;10189;49.546;7.906;2023-09-07T09:09:25;22.20;65.90
20057;DHT22;10189;49.546;7.906;2023-09-07T09:11:51;22.40;64.50
20057;DHT22;10189;49.546;7.906;2023-09-07T09:14:18;22.40;64.30
20057;DHT22;10189;49.546;7.906;2023-09-07T09:16:51;22.60;66.40
20057;DHT22;10189;49.546;7.906;2023-09-07T09:19:17;22.70;65.20
20057;DHT22;10189;49.546;7.906;2023-09-07T09:21:46;22.90;63.60
20057;DHT22;10189;49.546;7.906;2023-09-07T09:24:12;22.90;63.00
20057;DHT22;10189;49.546;7.906;2023-09-07T09:26:40;22.90;63.20
20057;DHT22;10189;49.546;7.906;2023-09-07T09:29:06;23.00;61.70
20057;DHT22;10189;49.546;7.906;2023-09-07T09:31:32;22.90;62.70
20057;DHT22;10189;49.546;7.906;2023-09-07T09:33:59;22.80;63.10
20057;DHT22;10189;49.546;7.906;2023-09-07T09:36:33;22.90;63.60
20057;DHT22;10189;49.546;7.906;2023-09-07T09:39:00;22.80;61.90
20057;DHT22;10189;49.546;7.906;2023-09-07T09:41:26;22.90;62.80
20057;DHT22;10189;49.546;7.906;2023-09-07T09:43:56;23.00;62.00
20057;DHT22;10189;49.546;7.906;2023-09-07T09:46:22;23.00;62.10
20057;DHT22;10189;49.546;7.906;2023-09-07T09:48:49;23.10;62.50
20057;DHT22;10189;49.546;7.906;2023-09-07T09:51:18;23.30;63.00
20057;DHT22;10189;49.546;7.906;2023-09-07T09:53:44;23.40;64.70
20057;DHT22;10189;49.546;7.906;2023-09-07T09:56:11;23.60;61.80
20057;DHT22;10189;49.546;7.906;2023-09-07T09:58:37;23.70;61.00
20057;DHT22;10189;49.546;7.906;2023-09-07T10:01:04;23.80;60.40
20057;DHT22;10189;49.546;7.906;2023-09-07T10:03:37;23.90;62.30
20057;DHT22;10189;49.546;7.906;2023-09-07T10:06:27;24.00;59.00
20057;DHT22;10189;49.546;7.906;2023-09-07T10:09:02;24.10;60.30
20057;DHT22;10189;49.546;7.906;2023-09-07T10:11:36;24.10;59.70
20057;DHT22;10189;49.546;7.906;2023-09-07T10:14:04;24.00;59.10
20057;DHT22;10189;49.546;7.906;2023-09-07T10:16:47;24.00;60.90
20057;DHT22;10189;49.546;7.906;2023-09-07T10:19:22;24.20;59.30
20057;DHT22;10189;49.546;7.906;2023-09-07T10:21:52;24.20;61.30
20057;DHT22;10189;49.546;7.906;2023-09-07T10:24:29;24.40;59.60
20057;DHT22;10189;49.546;7.906;2023-09-07T10:27:01;24.70;62.10
20057;DHT22;10189;49.546;7.906;2023-09-07T10:29:41;24.80;59.30
20057;DHT22;10189;49.546;7.906;2023-09-07T10:32:12;24.80;58.10
20057;DHT22;10189;49.546;7.906;2023-09-07T10:34:40;24.80;59.40
20057;DHT22;10189;49.546;7.906;2023-09-07T10:37:13;24.70;58.70
20057;DHT22;10189;49.546;7.906;2023-09-07T10:39:44;24.60;59.20
20057;DHT22;10189;49.546;7.906;2023-09-07T10:42:23;24.60;58.50
20057;DHT22;10189;49.546;7.906;2023-09-07T10:44:50;24.60;59.70
20057;DHT22;10189;49.546;7.906;2023-09-07T10:47:16;24.60;58.50
20057;DHT22;10189;49.546;7.906;2023-09-07T10:49:42;24.50;57.10
20057;DHT22;10189;49.546;7.906;2023-09-07T10:52:08;24.40;57.50
20057;DHT22;10189;49.546;7.906;2023-09-07T10:54:34;24.30;58.30
20057;DHT22;10189;49.546;7.906;2023-09-07T10:57:11;24.40;58.50
20057;DHT22;10189;49.546;7.906;2023-09-07T10:59:46;24.50;59.40
20057;DHT22;10189;49.546;7.906;2023-09-07T11:02:14;24.70;60.10
20057;DHT22;10189;49.546;7.906;2023-09-07T11:04:41;24.90;58.20
20057;DHT22;10189;49.546;7.906;2023-09-07T11:07:07;24.90;56.00
20057;DHT22;10189;49.546;7.906;2023-09-07T11:09:33;24.80;56.70
20057;DHT22;10189;49.546;7.906;2023-09-07T11:12:05;24.80;58.50
20057;DHT22;10189;49.546;7.906;2023-09-07T11:14:31;24.90;57.20
20057;DHT22;10189;49.546;7.906;2023-09-07T11:16:57;25.00;57.30
20057;DHT22;10189;49.546;7.906;2023-09-07T11:19:23;25.10;56.30
20057;DHT22;10189;49.546;7.906;2023-09-07T11:21:49;25.20;56.20
20057;DHT22;10189;49.546;7.906;2023-09-07T11:24:16;25.20;54.50
20057;DHT22;10189;49.546;7.906;2023-09-07T11:26:44;25.10;54.60
20057;DHT22;10189;49.546;7.906;2023-09-07T11:29:16;25.00;55.00
20057;DHT22;10189;49.546;7.906;2023-09-07T11:31:44;24.90;54.60
20057;DHT22;10189;49.546;7.906;2023-09-07T11:34:12;24.90;54.10
20057;DHT22;10189;49.546;7.906;2023-09-07T11:36:42;24.90;54.70
20057;DHT22;10189;49.546;7.906;2023-09-07T11:39:09;25.00;54.70
20057;DHT22;10189;49.546;7.906;2023-09-07T11:41:40;25.20;54.10
20057;DHT22;10189;49.546;7.906;2023-09-07T11:44:10;25.40;53.10
20057;DHT22;10189;49.546;7.906;2023-09-07T11:46:37;25.40;53.70
20057;DHT22;10189;49.546;7.906;2023-09-07T11:49:06;25.40;53.90
20057;DHT22;10189;49.546;7.906;2023-09-07T11:51:34;25.40;52.60
20057;DHT22;10189;49.546;7.906;2023-09-07T11:54:02;25.50;53.70
20057;DHT22;10189;49.546;7.906;2023-09-07T11:56:28;25.30;53.60
20057;DHT22;10189;49.546;7.906;2023-09-07T11:58:54;25.30;53.30
20057;DHT22;10189;49.546;7.906;2023-09-07T12:01:21;25.30;52.00
20057;DHT22;10189;49.546;7.906;2023-09-07T12:03:47;25.30;52.90
20057;DHT22;10189;49.546;7.906;2023-09-07T12:06:13;25.40;53.10
20057;DHT22;10189;49.546;7.906;2023-09-07T12:08:42;25.50;52.80
20057;DHT22;10189;49.546;7.906;2023-09-07T12:11:23;25.60;51.70
20057;DHT22;10189;49.546;7.906;2023-09-07T12:13:49;25.50;52.70
20057;DHT22;10189;49.546;7.906;2023-09-07T12:16:15;25.70;54.30
20057;DHT22;10189;49.546;7.906;2023-09-07T12:18:40;25.80;52.10
20057;DHT22;10189;49.546;7.906;2023-09-07T12:21:06;25.90;52.80
20057;DHT22;10189;49.546;7.906;2023-09-07T12:23:34;25.90;51.60
20057;DHT22;10189;49.546;7.906;2023-09-07T12:26:01;26.00;52.80
20057;DHT22;10189;49.546;7.906;2023-09-07T12:28:30;26.10;51.30
20057;DHT22;10189;49.546;7.906;2023-09-07T12:30:57;26.10;51.30
20057;DHT22;10189;49.546;7.906;2023-09-07T12:33:24;26.10;51.40
20057;DHT22;10189;49.546;7.906;2023-09-07T12:35:50;26.10;53.10
20057;DHT22;10189;49.546;7.906;2023-09-07T12:38:17;26.20;53.60
20057;DHT22;10189;49.546;7.906;2023-09-07T12:40:44;26.30;51.50
20057;DHT22;10189;49.546;7.906;2023-09-07T12:43:10;26.40;51.40
20057;DHT22;10189;49.546;7.906;2023-09-07T12:45:36;26.40;51.30
20057;DHT22;10189;49.546;7.906;2023-09-07T12:48:02;26.50;51.60
20057;DHT22;10189;49.546;7.906;2023-09-07T12:50:28;26.50;52.20
20057;DHT22;10189;49.546;7.906;2023-09-07T12:52:54;26.50;51.70
20057;DHT22;10189;49.546;7.906;2023-09-07T12:55:20;26.40;51.40
20057;DHT22;10189;49.546;7.906;2023-09-07T12:57:46;26.40;51.90
20057;DHT22;10189;49.546;7.906;2023-09-07T13:00:13;26.50;52.50
20057;DHT22;10189;49.546;7.906;2023-09-07T13:02:39;26.50;51.30
20057;DHT22;10189;49.546;7.906;2023-09-07T13:05:05;26.40;52.50
20057;DHT22;10189;49.546;7.906;2023-09-07T13:07:32;26.40;51.50
20057;DHT22;10189;49.546;7.906;2023-09-07T13:09:58;26.50;54.10
20057;DHT22;10189;49.546;7.906;2023-09-07T13:12:24;26.50;51.50
20057;DHT22;10189;49.546;7.906;2023-09-07T13:14:49;26.40;51.80
20057;DHT22;10189;49.546;7.906;2023-09-07T13:17:15;26.30;53.10
20057;DHT22;10189;49.546;7.906;2023-09-07T13:19:41;26.30;52.20
20057;DHT22;10189;49.546;7.906;2023-09-07T13:22:09;26.30;52.80
20057;DHT22;10189;49.546;7.906;2023-09-07T13:24:35;26.40;52.00
20057;DHT22;10189;49.546;7.906;2023-09-07T13:27:01;26.30;51.60
20057;DHT22;10189;49.546;7.906;2023-09-07T13:29:33;26.20;52.60
20057;DHT22;10189;49.546;7.906;2023-09-07T13:31:59;26.20;54.10
20057;DHT22;10189;49.546;7.906;2023-09-07T13:34:25;26.30;53.40
20057;DHT22;10189;49.546;7.906;2023-09-07T13:36:52;26.50;53.40
20057;DHT22;10189;49.546;7.906;2023-09-07T13:39:19;26.50;52.30
20057;DHT22;10189;49.546;7.906;2023-09-07T13:41:46;26.50;53.40
20057;DHT22;10189;49.546;7.906;2023-09-07T13:44:16;26.70;51.30
20057;DHT22;10189;49.546;7.906;2023-09-07T13:46:44;26.70;52.60
20057;DHT22;10189;49.546;7.906;2023-09-07T13:49:11;26.70;51.20
20057;DHT22;10189;49.546;7.906;2023-09-07T13:51:40;26.70;51.20
20057;DHT22;10189;49.546;7.906;2023-09-07T13:54:08;26.80;52.30
20057;DHT22;10189;49.546;7.906;2023-09-07T13:56:34;26.90;51.90
20057;DHT22;10189;49.546;7.906;2023-09-07T13:59:05;26.90;51.20
20057;DHT22;10189;49.546;7.906;2023-09-07T14:01:32;26.80;51.40
20057;DHT22;10189;49.546;7.906;2023-09-07T14:03:58;26.70;52.30
20057;DHT22;10189;49.546;7.906;2023-09-07T14:06:25;26.70;51.80
20057;DHT22;10189;49.546;7.906;2023-09-07T14:08:51;26.80;52.30
20057;DHT22;10189;49.546;7.906;2023-09-07T14:11:18;26.80;51.40
20057;DHT22;10189;49.546;7.906;2023-09-07T14:13:44;26.90;51.90
20057;DHT22;10189;49.546;7.906;2023-09-07T14:16:13;27.00;51.30
20057;DHT22;10189;49.546;7.906;2023-09-07T14:18:40;27.00;50.10
20057;DHT22;10189;49.546;7.906;2023-09-07T14:21:05;27.00;51.10
20057;DHT22;10189;49.546;7.906;2023-09-07T14:23:31;27.00;50.90
20057;DHT22;10189;49.546;7.906;2023-09-07T14:25:57;27.00;51.50
20057;DHT22;10189;49.546;7.906;2023-09-07T14:28:24;26.90;51.20
20057;DHT22;10189;49.546;7.906;2023-09-07T14:30:50;26.80;51.30
20057;DHT22;10189;49.546;7.906;2023-09-07T14:33:16;26.70;52.30
20057;DHT22;10189;49.546;7.906;2023-09-07T14:35:42;26.70;52.60
20057;DHT22;10189;49.546;7.906;2023-09-07T14:38:08;26.80;52.30
20057;DHT22;10189;49.546;7.906;2023-09-07T14:40:34;26.90;51.90
20057;DHT22;10189;49.546;7.906;2023-09-07T14:43:00;26.90;51.90
20057;DHT22;10189;49.546;7.906;2023-09-07T14:45:26;26.90;52.30
20057;DHT22;10189;49.546;7.906;2023-09-07T14:47:52;26.90;53.60
20057;DHT22;10189;49.546;7.906;2023-09-07T14:50:18;26.90;53.10
20057;DHT22;10189;49.546;7.906;2023-09-07T14:52:45;27.00;53.10
20057;DHT22;10189;49.546;7.906;2023-09-07T14:55:13;27.10;52.30
20057;DHT22;10189;49.546;7.906;2023-09-07T14:57:42;27.20;52.10
20057;DHT22;10189;49.546;7.906;2023-09-07T15:00:09;27.30;52.20
20057;DHT22;10189;49.546;7.906;2023-09-07T15:02:37;27.30;50.00
20057;DHT22;10189;49.546;7.906;2023-09-07T15:05:03;27.30;50.60
20057;DHT22;10189;49.546;7.906;2023-09-07T15:07:29;27.20;50.10
20057;DHT22;10189;49.546;7.906;2023-09-07T15:09:56;27.10;50.50
20057;DHT22;10189;49.546;7.906;2023-09-07T15:12:22;27.10;51.00
20057;DHT22;10189;49.546;7.906;2023-09-07T15:14:48;27.10;51.30
20057;DHT22;10189;49.546;7.906;2023-09-07T15:17:15;27.20;52.80
20057;DHT22;10189;49.546;7.906;2023-09-07T15:19:42;27.20;50.50
20057;DHT22;10189;49.546;7.906;2023-09-07T15:22:08;27.10;52.00
20057;DHT22;10189;49.546;7.906;2023-09-07T15:24:34;27.00;52.50
20057;DHT22;10189;49.546;7.906;2023-09-07T15:27:10;27.00;51.60
20057;DHT22;10189;49.546;7.906;2023-09-07T15:29:38;27.00;52.60
20057;DHT22;10189;49.546;7.906;2023-09-07T15:32:07;27.00;51.80